Terminal Aerodrome Forecast
Issued by NWS

Current Version | Previous Version | Text Only | Print | Product List | Glossary On
Versions: 1 2 3 4 5 6 7 8 9 10 11 12 13
000
FTUS46 KMFR 052340
TAFRBG
TAF
KRBG 052340Z 0600/0624 34010KT P6SM OVC035
     FM060400 35005KT P6SM SCT020 OVC035
     FM060800 35005KT P6SM BKN020 OVC035
     FM061700 01012G20KT P6SM SCT040=

USA.gov is the U.S. government's official web portal to all federal, state and local government web resources and services.